Time;durP1;ratioP1;P1;durP2;ratioP2;P2;SDS_P1;SDS_P2;PMS_P1;PMS_P2;Temp;Humidity;BMP_temperature;BMP_pressure;BME280_temperature;BME280_humidity;BME280_pressure;Samples;Min_cycle;Max_cycle;Signal;HPM_P1;HPM_P2
2023/09/20 00:01:22;;;;;;;3.97;2.03;;;18.60;99.90;;;;;;5091617;28;20432;-63
2023/09/20 00:03:48;;;;;;;3.30;1.97;;;18.60;99.90;;;;;;5086661;28;20479;-63
2023/09/20 00:06:17;;;;;;;4.03;2.23;;;18.60;99.90;;;;;;5091187;28;20825;-63
2023/09/20 00:08:43;;;;;;;4.80;1.90;;;18.60;99.90;;;;;;5087448;28;20491;-63
2023/09/20 00:11:15;;;;;;;4.50;2.07;;;18.50;99.90;;;;;;5092941;28;20417;-64
2023/09/20 00:13:41;;;;;;;7.57;2.20;;;18.50;99.90;;;;;;5098616;28;20437;-63
2023/09/20 00:16:09;;;;;;;3.10;1.60;;;18.50;99.90;;;;;;5092176;28;20755;-63
2023/09/20 00:18:38;;;;;;;3.63;2.00;;;18.50;99.90;;;;;;5094637;28;21090;-64
2023/09/20 00:21:04;;;;;;;3.50;2.00;;;18.50;99.90;;;;;;5094320;28;20422;-63
2023/09/20 00:23:29;;;;;;;5.20;1.90;;;18.50;99.90;;;;;;5094067;28;20843;-63
2023/09/20 00:25:56;;;;;;;7.23;2.40;;;18.50;99.90;;;;;;5092457;28;20438;-63
2023/09/20 00:28:22;;;;;;;3.60;1.80;;;18.50;99.90;;;;;;5093719;28;20230;-63
2023/09/20 00:30:50;;;;;;;4.83;1.67;;;18.50;99.90;;;;;;5093072;28;20444;-63
2023/09/20 00:33:16;;;;;;;4.20;2.30;;;18.40;99.90;;;;;;5092263;28;20959;-63
2023/09/20 00:35:42;;;;;;;3.37;2.13;;;18.50;99.90;;;;;;5093972;28;20421;-62
2023/09/20 00:38:08;;;;;;;4.27;2.17;;;18.50;99.90;;;;;;5088914;28;20710;-63
2023/09/20 00:40:35;;;;;;;5.87;2.20;;;18.50;99.90;;;;;;5094238;28;20189;-63
2023/09/20 00:43:04;;;;;;;3.43;1.93;;;18.50;99.90;;;;;;5096949;28;20433;-63
2023/09/20 00:45:29;;;;;;;3.43;2.00;;;18.40;99.90;;;;;;5096636;28;20442;-63
2023/09/20 00:47:57;;;;;;;2.60;1.63;;;18.40;99.90;;;;;;5091308;27;20422;-63
2023/09/20 00:50:27;;;;;;;5.87;2.03;;;18.40;99.90;;;;;;5092794;28;20212;-63
2023/09/20 00:52:55;;;;;;;6.37;2.00;;;18.40;99.90;;;;;;5092179;28;20409;-63
2023/09/20 00:55:24;;;;;;;4.87;2.20;;;18.40;99.90;;;;;;5092101;28;20422;-63
2023/09/20 00:58:15;;;;;;;4.80;2.07;;;18.40;99.90;;;;;;5096030;28;20495;-63
2023/09/20 01:00:43;;;;;;;4.37;1.77;;;18.40;99.90;;;;;;5092960;28;20892;-63
2023/09/20 01:03:10;;;;;;;2.47;2.07;;;18.40;99.90;;;;;;5091685;28;20858;-63
2023/09/20 01:05:39;;;;;;;5.57;2.30;;;18.40;99.90;;;;;;5093493;28;20911;-63
2023/09/20 01:08:06;;;;;;;4.60;2.30;;;18.50;99.90;;;;;;5091081;28;20438;-64
2023/09/20 01:10:39;;;;;;;2.43;1.70;;;18.50;99.90;;;;;;5083375;28;20425;-63
2023/09/20 01:13:09;;;;;;;2.57;1.80;;;18.40;99.90;;;;;;5095938;28;20427;-63
2023/09/20 01:15:36;;;;;;;4.40;2.37;;;18.50;99.90;;;;;;5093011;28;21027;-63
2023/09/20 01:18:04;;;;;;;4.00;2.30;;;18.40;99.90;;;;;;5099292;28;20800;-64
2023/09/20 01:20:32;;;;;;;3.53;2.00;;;18.40;99.90;;;;;;5094256;28;20426;-63
2023/09/20 01:22:59;;;;;;;3.97;2.00;;;18.40;99.90;;;;;;5090721;28;20438;-63
2023/09/20 01:25:29;;;;;;;4.70;1.80;;;18.40;99.90;;;;;;5089744;28;20856;-63
2023/09/20 01:28:00;;;;;;;3.23;1.87;;;18.40;99.90;;;;;;5091002;27;20418;-63
2023/09/20 01:30:27;;;;;;;5.40;2.00;;;18.40;99.90;;;;;;5092781;28;20830;-64
2023/09/20 01:32:54;;;;;;;3.30;1.70;;;18.40;99.90;;;;;;5090677;27;20426;-63
2023/09/20 01:35:24;;;;;;;5.93;2.33;;;18.40;99.90;;;;;;5091760;28;20518;-64
2023/09/20 01:37:51;;;;;;;3.83;2.20;;;18.40;99.90;;;;;;5091366;28;20934;-63
2023/09/20 01:40:18;;;;;;;6.20;2.23;;;18.40;99.90;;;;;;5090723;28;20431;-63
2023/09/20 01:42:50;;;;;;;2.23;2.00;;;18.30;99.90;;;;;;5092130;28;20943;-63
2023/09/20 01:45:18;;;;;;;3.13;2.07;;;18.30;99.90;;;;;;5091348;28;20430;-63
2023/09/20 01:47:45;;;;;;;3.70;2.10;;;18.40;99.90;;;;;;5091963;28;20433;-63
2023/09/20 01:50:21;;;;;;;3.30;1.77;;;18.30;99.90;;;;;;5091147;28;21002;-63
2023/09/20 01:52:50;;;;;;;3.20;1.90;;;18.30;99.90;;;;;;5094494;28;20487;-63
2023/09/20 01:55:20;;;;;;;5.80;2.97;;;18.30;99.90;;;;;;5090586;28;20423;-63
2023/09/20 01:57:47;;;;;;;4.87;1.80;;;18.30;99.90;;;;;;5091302;28;21021;-64
2023/09/20 02:00:16;;;;;;;7.03;2.50;;;18.20;99.90;;;;;;5090284;28;20418;-63
2023/09/20 02:02:45;;;;;;;2.80;2.10;;;18.20;99.90;;;;;;5086330;28;20430;-63
2023/09/20 02:05:17;;;;;;;2.63;1.77;;;18.10;99.90;;;;;;5090488;28;20965;-64
2023/09/20 02:07:48;;;;;;;3.10;1.80;;;18.00;99.90;;;;;;5089199;28;20426;-63
2023/09/20 02:10:16;;;;;;;2.67;2.00;;;18.10;99.90;;;;;;5090444;28;20505;-63
2023/09/20 02:12:51;;;;;;;6.30;2.60;;;18.10;99.90;;;;;;5085682;28;20834;-63
2023/09/20 02:15:17;;;;;;;3.53;2.30;;;18.10;99.90;;;;;;5089441;28;20449;-63
2023/09/20 02:17:44;;;;;;;6.63;2.77;;;18.10;99.90;;;;;;5097526;28;20545;-64
2023/09/20 02:20:19;;;;;;;6.50;2.90;;;18.20;99.90;;;;;;5094372;28;20854;-63
2023/09/20 02:22:49;;;;;;;5.23;2.20;;;18.20;99.90;;;;;;5085374;28;20433;-64
2023/09/20 02:25:20;;;;;;;3.43;1.73;;;18.20;99.90;;;;;;5085619;28;20434;-64
2023/09/20 02:27:47;;;;;;;5.70;2.13;;;18.00;99.90;;;;;;5086672;28;20788;-63
2023/09/20 02:30:19;;;;;;;4.73;3.20;;;18.10;99.90;;;;;;5087363;28;20437;-63
2023/09/20 02:32:52;;;;;;;4.30;1.97;;;18.00;99.90;;;;;;5091803;28;20534;-64
2023/09/20 02:35:22;;;;;;;3.73;2.13;;;18.00;99.90;;;;;;5085296;28;20509;-64
2023/09/20 02:37:49;;;;;;;3.17;2.20;;;18.00;99.90;;;;;;5087381;28;21002;-64
2023/09/20 02:40:15;;;;;;;2.57;1.83;;;18.00;99.90;;;;;;5086608;28;20978;-64
2023/09/20 02:42:53;;;;;;;3.03;2.03;;;18.00;99.90;;;;;;5084198;28;20776;-63
2023/09/20 02:45:20;;;;;;;4.07;2.40;;;18.00;99.90;;;;;;5087149;28;20442;-64
2023/09/20 02:47:47;;;;;;;5.93;2.00;;;17.90;99.90;;;;;;5087478;28;20489;-64
2023/09/20 02:50:16;;;;;;;4.43;1.90;;;17.90;99.90;;;;;;5087170;28;20422;-64
2023/09/20 02:52:43;;;;;;;6.17;2.30;;;17.90;99.90;;;;;;5081565;28;20422;-64
2023/09/20 02:55:12;;;;;;;3.80;1.70;;;17.90;99.90;;;;;;5084927;28;20521;-64
2023/09/20 02:57:38;;;;;;;4.90;1.90;;;17.80;99.90;;;;;;5086387;28;20576;-64
2023/09/20 03:00:15;;;;;;;3.87;2.60;;;17.90;99.90;;;;;;5085882;28;20423;-64
2023/09/20 03:02:49;;;;;;;4.90;3.17;;;17.90;99.90;;;;;;5092877;28;20427;-64
2023/09/20 03:05:21;;;;;;;5.83;2.33;;;17.90;99.90;;;;;;5086407;28;20955;-64
2023/09/20 03:07:49;;;;;;;2.23;2.03;;;17.90;99.90;;;;;;5088497;28;20426;-64
2023/09/20 03:10:19;;;;;;;5.37;2.50;;;17.90;99.90;;;;;;5093325;28;20429;-64
2023/09/20 03:12:46;;;;;;;3.20;2.20;;;17.90;99.90;;;;;;5089734;28;20426;-64
2023/09/20 03:15:19;;;;;;;2.27;1.93;;;17.80;99.90;;;;;;5088574;28;21181;-64
2023/09/20 03:17:45;;;;;;;4.50;2.20;;;17.80;99.90;;;;;;5090377;28;20502;-64
2023/09/20 03:20:12;;;;;;;4.90;2.13;;;17.80;99.90;;;;;;5097260;28;20434;-64
2023/09/20 03:22:38;;;;;;;4.20;1.70;;;17.80;99.90;;;;;;5093539;28;20430;-64
2023/09/20 03:25:05;;;;;;;3.30;2.20;;;17.70;99.90;;;;;;5087581;28;20545;-64
2023/09/20 03:27:31;;;;;;;3.30;1.90;;;17.80;99.90;;;;;;5090435;28;20423;-64
2023/09/20 03:29:57;;;;;;;4.63;2.40;;;17.70;99.90;;;;;;5087479;28;20787;-64
2023/09/20 03:32:23;;;;;;;3.40;1.87;;;17.70;99.90;;;;;;5090238;28;20459;-64
2023/09/20 03:34:49;;;;;;;3.50;2.30;;;17.70;99.90;;;;;;5091092;28;20183;-64
2023/09/20 03:37:18;;;;;;;3.90;2.37;;;17.70;99.90;;;;;;5086241;28;20994;-64
2023/09/20 03:39:45;;;;;;;5.53;2.63;;;17.70;99.90;;;;;;5091536;28;20777;-64
2023/09/20 03:42:11;;;;;;;6.40;2.37;;;17.70;99.90;;;;;;5088969;28;20920;-64
2023/09/20 03:44:39;;;;;;;6.40;2.20;;;17.70;99.90;;;;;;5087927;28;20437;-64
2023/09/20 03:47:05;;;;;;;4.00;2.20;;;17.70;99.90;;;;;;5088278;28;20191;-64
2023/09/20 03:49:31;;;;;;;4.30;1.93;;;17.70;99.90;;;;;;5090464;28;20517;-64
2023/09/20 03:52:00;;;;;;;4.33;2.77;;;17.70;99.90;;;;;;5089736;28;20579;-64
2023/09/20 03:54:26;;;;;;;2.83;2.00;;;17.80;99.90;;;;;;5090031;28;20666;-64
2023/09/20 03:56:52;;;;;;;3.33;2.20;;;17.80;99.90;;;;;;5094744;28;20477;-64
2023/09/20 03:59:18;;;;;;;2.17;1.67;;;17.80;99.90;;;;;;5099921;28;20437;-64
2023/09/20 04:01:44;;;;;;;4.73;2.07;;;17.80;99.90;;;;;;5090713;28;20745;-64
2023/09/20 04:04:10;;;;;;;4.90;2.60;;;17.70;99.90;;;;;;5089247;28;20434;-64
2023/09/20 04:06:36;;;;;;;3.87;2.10;;;17.80;99.90;;;;;;5091038;28;20172;-64
2023/09/20 04:09:09;;;;;;;5.60;2.40;;;17.80;99.90;;;;;;5088764;28;20540;-64
2023/09/20 04:11:40;;;;;;;3.23;1.90;;;17.80;99.90;;;;;;5090446;28;20437;-64
2023/09/20 04:14:07;;;;;;;3.57;1.73;;;17.70;99.90;;;;;;5088750;28;20891;-64
2023/09/20 04:16:39;;;;;;;4.33;2.17;;;17.70;99.90;;;;;;5090364;28;20526;-64
2023/09/20 04:19:06;;;;;;;3.77;1.90;;;17.80;99.90;;;;;;5088532;28;20470;-64
2023/09/20 04:21:32;;;;;;;5.17;2.03;;;17.80;99.90;;;;;;5087329;28;20768;-64
2023/09/20 04:23:59;;;;;;;3.93;2.10;;;17.80;99.90;;;;;;5088987;28;21011;-64
2023/09/20 04:26:25;;;;;;;6.00;2.10;;;17.80;99.90;;;;;;5093253;28;20300;-64
2023/09/20 04:28:51;;;;;;;5.30;2.43;;;17.80;99.90;;;;;;5090608;28;20436;-64
2023/09/20 04:31:17;;;;;;;2.67;2.10;;;17.80;99.90;;;;;;5095348;28;20453;-64
2023/09/20 04:33:42;;;;;;;4.03;2.50;;;17.80;99.90;;;;;;5093351;28;20436;-64
2023/09/20 04:36:08;;;;;;;4.03;2.40;;;17.80;99.90;;;;;;5089233;28;20495;-64
2023/09/20 04:38:34;;;;;;;2.70;2.03;;;17.80;99.90;;;;;;5093986;28;20670;-64
2023/09/20 04:40:59;;;;;;;3.27;1.93;;;17.70;99.90;;;;;;5093133;28;20175;-64
2023/09/20 04:43:30;;;;;;;7.20;2.40;;;17.70;99.90;;;;;;5099593;28;20191;-64
2023/09/20 04:45:56;;;;;;;2.07;1.70;;;17.70;99.90;;;;;;5096125;28;20188;-64
2023/09/20 04:48:21;;;;;;;4.27;2.00;;;17.70;99.90;;;;;;5092861;28;20937;-63
2023/09/20 04:50:51;;;;;;;2.57;1.80;;;17.70;99.90;;;;;;5094583;28;20611;-64
2023/09/20 04:53:17;;;;;;;3.57;2.20;;;17.70;99.90;;;;;;5088416;28;20173;-64
2023/09/20 04:55:43;;;;;;;5.30;2.27;;;17.70;99.90;;;;;;5084359;28;20870;-64
2023/09/20 04:58:09;;;;;;;4.67;1.93;;;17.70;99.90;;;;;;5097771;28;20218;-64
2023/09/20 05:00:37;;;;;;;4.10;2.23;;;17.70;99.90;;;;;;5090544;28;20431;-64
2023/09/20 05:03:04;;;;;;;3.27;2.40;;;17.70;99.90;;;;;;5094106;28;20239;-64
2023/09/20 05:05:29;;;;;;;4.07;1.83;;;17.80;99.90;;;;;;5098698;28;20952;-64
2023/09/20 05:07:56;;;;;;;5.00;2.23;;;17.70;99.90;;;;;;5092542;28;20417;-64
2023/09/20 05:10:22;;;;;;;4.90;2.37;;;17.70;99.90;;;;;;5097526;28;20176;-64
2023/09/20 05:12:48;;;;;;;4.10;1.83;;;17.70;99.90;;;;;;5093647;28;20427;-64
2023/09/20 05:15:15;;;;;;;6.00;2.10;;;17.70;99.90;;;;;;5098403;28;20494;-64
2023/09/20 05:17:43;;;;;;;4.50;2.37;;;17.70;99.90;;;;;;5098431;28;20215;-63
2023/09/20 05:20:13;;;;;;;2.40;1.87;;;17.70;99.90;;;;;;5096085;28;20467;-64
2023/09/20 05:22:39;;;;;;;2.40;1.80;;;17.60;99.90;;;;;;5094098;27;20504;-64
2023/09/20 05:25:07;;;;;;;4.00;1.70;;;17.60;99.90;;;;;;5089992;28;20415;-64
2023/09/20 05:27:33;;;;;;;3.00;1.70;;;17.60;99.90;;;;;;5093145;28;20418;-64
2023/09/20 05:30:00;;;;;;;1.90;1.70;;;17.60;99.90;;;;;;5092211;28;20429;-64
2023/09/20 05:32:26;;;;;;;3.10;2.17;;;17.70;99.90;;;;;;5092026;28;20856;-63
2023/09/20 05:34:52;;;;;;;4.33;2.13;;;17.60;99.90;;;;;;5097958;28;20426;-64
2023/09/20 05:37:18;;;;;;;3.63;2.27;;;17.60;99.90;;;;;;5089281;28;20221;-64
2023/09/20 05:39:47;;;;;;;1.90;1.80;;;17.70;99.90;;;;;;5094708;28;20438;-64
2023/09/20 05:42:14;;;;;;;4.53;3.00;;;17.70;99.90;;;;;;5094489;28;20285;-64
2023/09/20 05:44:40;;;;;;;3.13;1.90;;;17.70;99.90;;;;;;5092641;28;20438;-64
2023/09/20 05:47:08;;;;;;;3.77;2.10;;;17.70;99.90;;;;;;5090781;28;20536;-64
2023/09/20 05:49:34;;;;;;;4.77;2.03;;;17.70;99.90;;;;;;5093494;28;20423;-64
2023/09/20 05:52:02;;;;;;;4.30;2.13;;;17.70;99.90;;;;;;5096388;28;20426;-64
2023/09/20 05:54:29;;;;;;;3.50;1.73;;;17.70;99.90;;;;;;5092251;28;20820;-64
2023/09/20 05:56:54;;;;;;;3.60;2.20;;;17.70;99.90;;;;;;5096318;28;20429;-64
2023/09/20 05:59:20;;;;;;;3.00;1.70;;;17.70;99.90;;;;;;5093737;28;20444;-64
2023/09/20 06:01:46;;;;;;;2.87;1.77;;;17.70;99.90;;;;;;5094383;28;20547;-64
2023/09/20 06:04:11;;;;;;;3.70;2.07;;;17.80;99.90;;;;;;5091964;28;20548;-64
2023/09/20 06:06:38;;;;;;;4.17;1.90;;;17.80;99.90;;;;;;5083198;28;20180;-64
2023/09/20 06:09:05;;;;;;;4.67;1.97;;;17.90;99.90;;;;;;5097713;28;20190;-64
2023/09/20 06:11:31;;;;;;;2.93;2.17;;;17.90;99.90;;;;;;5092957;28;20799;-64
2023/09/20 06:13:56;;;;;;;3.47;2.00;;;18.00;99.90;;;;;;5095738;28;20430;-64
2023/09/20 06:16:22;;;;;;;2.27;1.83;;;18.00;99.90;;;;;;5091881;28;20423;-64
2023/09/20 06:18:49;;;;;;;2.63;1.80;;;18.00;99.90;;;;;;5091158;28;20218;-64
2023/09/20 06:21:17;;;;;;;8.20;3.57;;;18.00;99.90;;;;;;5089014;28;20960;-64
2023/09/20 06:23:44;;;;;;;3.33;2.00;;;18.00;99.90;;;;;;5089609;28;20478;-64
2023/09/20 06:26:12;;;;;;;3.97;1.80;;;18.00;99.90;;;;;;5089369;28;20450;-64
2023/09/20 06:28:41;;;;;;;2.93;2.00;;;18.10;99.90;;;;;;5093481;28;20771;-64
2023/09/20 06:31:15;;;;;;;3.23;2.13;;;18.10;99.90;;;;;;5094601;28;20434;-64
2023/09/20 06:33:43;;;;;;;3.50;2.00;;;18.20;99.90;;;;;;5091054;28;20421;-64
2023/09/20 06:36:14;;;;;;;5.43;2.40;;;18.30;99.90;;;;;;5094459;28;20859;-64
2023/09/20 06:38:42;;;;;;;3.03;2.10;;;18.40;99.90;;;;;;5090181;28;20469;-64
2023/09/20 06:41:08;;;;;;;2.90;1.87;;;18.50;99.90;;;;;;5094696;28;20433;-64
2023/09/20 06:43:33;;;;;;;4.10;2.20;;;18.50;99.90;;;;;;5093211;28;20897;-64
2023/09/20 06:46:03;;;;;;;3.67;1.97;;;18.50;99.90;;;;;;5093651;27;20188;-64
2023/09/20 06:48:29;;;;;;;4.23;2.10;;;18.50;99.90;;;;;;5096142;28;20299;-64
2023/09/20 06:50:55;;;;;;;2.90;1.80;;;18.50;99.90;;;;;;5090850;28;20437;-64
2023/09/20 06:53:23;;;;;;;4.27;2.13;;;18.50;99.90;;;;;;5090263;28;20423;-64
2023/09/20 06:55:50;;;;;;;3.57;2.27;;;18.60;99.90;;;;;;5096924;28;20448;-64
2023/09/20 06:58:16;;;;;;;3.03;2.03;;;18.60;99.90;;;;;;5091274;28;20474;-63
2023/09/20 07:00:42;;;;;;;3.00;2.00;;;18.60;99.90;;;;;;5099067;28;20425;-64
2023/09/20 07:03:08;;;;;;;3.80;2.10;;;18.60;99.90;;;;;;5098446;28;21003;-62
2023/09/20 07:05:34;;;;;;;3.43;2.00;;;18.60;99.90;;;;;;5096771;28;20911;-64
2023/09/20 07:08:00;;;;;;;3.60;2.20;;;18.60;99.90;;;;;;5094469;28;20438;-64
2023/09/20 07:10:28;;;;;;;4.97;2.23;;;18.60;99.90;;;;;;5096620;28;20184;-64
2023/09/20 07:12:54;;;;;;;2.00;1.80;;;18.60;99.90;;;;;;5097830;28;20425;-64
2023/09/20 07:15:21;;;;;;;8.80;1.93;;;18.60;99.90;;;;;;5096246;28;20477;-64
2023/09/20 07:17:58;;;;;;;2.50;1.83;;;18.60;99.90;;;;;;5095758;28;20211;-64
2023/09/20 07:20:28;;;;;;;4.07;2.20;;;18.50;99.90;;;;;;5099100;28;20456;-64
2023/09/20 07:22:54;;;;;;;2.60;2.03;;;18.60;99.90;;;;;;5090791;28;20521;-64
2023/09/20 07:25:21;;;;;;;3.90;2.00;;;18.50;99.90;;;;;;5094797;28;20453;-64
2023/09/20 07:27:48;;;;;;;3.47;1.97;;;18.60;99.90;;;;;;5091713;28;20455;-64
2023/09/20 07:30:17;;;;;;;2.97;2.40;;;18.60;99.90;;;;;;5093976;28;20455;-64
2023/09/20 07:32:44;;;;;;;5.10;1.77;;;18.60;99.90;;;;;;5093996;28;20988;-64
2023/09/20 07:37:56;;;;;;;4.20;2.13;;;18.60;99.90;;;;;;5089168;28;20475;-64
2023/09/20 07:40:33;;;;;;;2.93;1.80;;;18.60;99.90;;;;;;5089859;28;20947;-64
2023/09/20 07:43:03;;;;;;;3.00;2.47;;;18.70;99.90;;;;;;5090132;28;20454;-64
2023/09/20 07:45:38;;;;;;;2.60;2.00;;;18.80;99.90;;;;;;5093528;28;20431;-64
2023/09/20 07:48:14;;;;;;;6.37;2.67;;;18.90;99.90;;;;;;5099159;28;20475;-64
2023/09/20 07:50:50;;;;;;;4.00;1.97;;;19.00;99.90;;;;;;5092548;28;20421;-64
2023/09/20 07:53:20;;;;;;;3.30;1.90;;;19.00;99.90;;;;;;5088707;28;20430;-63
2023/09/20 07:56:06;;;;;;;3.53;2.20;;;19.10;99.90;;;;;;5091953;28;20448;-64
2023/09/20 07:58:37;;;;;;;3.70;2.30;;;19.20;99.90;;;;;;5090912;28;20473;-64
2023/09/20 08:01:21;;;;;;;2.20;2.00;;;19.20;99.90;;;;;;5089114;28;20438;-64
2023/09/20 08:03:51;;;;;;;4.90;1.80;;;19.20;99.90;;;;;;5089240;28;21163;-64
2023/09/20 08:06:22;;;;;;;2.70;2.30;;;19.20;99.90;;;;;;5089086;28;20949;-63
2023/09/20 08:08:48;;;;;;;2.20;2.00;;;19.30;99.90;;;;;;5087726;28;20495;-64
2023/09/20 08:11:14;;;;;;;2.13;1.93;;;19.20;99.90;;;;;;5089625;28;20903;-64
2023/09/20 08:13:40;;;;;;;2.40;1.67;;;19.20;99.90;;;;;;5099693;28;20448;-64
2023/09/20 08:16:09;;;;;;;3.07;1.90;;;19.20;99.90;;;;;;5089901;28;20176;-63
2023/09/20 08:21:20;;;;;;;2.70;1.77;;;19.40;99.90;;;;;;5090043;28;20437;-64
2023/09/20 08:59:48;;;;;;;3.70;2.60;;;20.00;99.90;;;;;;5095741;28;21151;-64
2023/09/20 09:02:15;;;;;;;1.90;1.70;;;20.00;99.90;;;;;;5100045;28;20471;-64
2023/09/20 09:04:53;;;;;;;3.83;1.73;;;20.00;99.90;;;;;;5100882;28;20983;-64
2023/09/20 09:07:23;;;;;;;1.90;1.80;;;19.90;99.90;;;;;;5091610;28;20418;-63
2023/09/20 09:09:49;;;;;;;2.63;2.03;;;19.90;99.90;;;;;;5093428;28;20425;-64
2023/09/20 09:12:15;;;;;;;2.13;1.30;;;19.90;99.90;;;;;;5091259;28;20454;-64
2023/09/20 09:14:42;;;;;;;2.70;1.60;;;19.90;99.90;;;;;;5100607;28;20800;-64
2023/09/20 09:17:09;;;;;;;2.77;1.57;;;19.90;99.90;;;;;;5090841;28;20431;-64
2023/09/20 09:19:37;;;;;;;2.73;1.60;;;19.90;99.90;;;;;;5094523;28;20437;-64
2023/09/20 09:22:04;;;;;;;3.07;1.43;;;19.90;99.90;;;;;;5095813;28;20794;-64
2023/09/20 09:24:47;;;;;;;2.20;1.40;;;20.00;99.90;;;;;;5093741;28;20434;-64
2023/09/20 09:27:15;;;;;;;3.53;1.73;;;20.00;99.90;;;;;;5094809;28;20453;-64
2023/09/20 09:29:46;;;;;;;3.30;1.53;;;20.00;99.90;;;;;;5092724;28;20422;-64
2023/09/20 09:32:13;;;;;;;3.00;1.53;;;20.00;99.90;;;;;;5090773;28;20449;-64
2023/09/20 09:34:43;;;;;;;3.27;1.30;;;20.10;99.90;;;;;;5095105;28;20494;-64
2023/09/20 09:37:11;;;;;;;2.33;1.20;;;20.10;99.90;;;;;;5100301;28;20450;-64
2023/09/20 09:39:39;;;;;;;2.10;1.53;;;20.00;99.90;;;;;;5094743;28;20440;-64
2023/09/20 09:42:06;;;;;;;5.80;1.70;;;20.00;99.90;;;;;;5095815;28;20484;-64
2023/09/20 09:44:51;;;;;;;2.63;1.47;;;20.00;99.90;;;;;;5096695;28;20524;-64
2023/09/20 09:47:18;;;;;;;2.33;1.30;;;20.10;99.90;;;;;;5098941;28;20504;-64
2023/09/20 09:49:46;;;;;;;3.43;1.40;;;20.10;99.90;;;;;;5094573;28;20437;-64
2023/09/20 09:52:13;;;;;;;1.87;1.47;;;20.20;99.90;;;;;;5090783;28;20740;-64
2023/09/20 09:54:39;;;;;;;2.00;1.50;;;20.20;99.90;;;;;;5094950;28;20432;-64
2023/09/20 09:57:05;;;;;;;1.70;1.50;;;20.30;99.90;;;;;;5095171;28;20721;-63
2023/09/20 09:59:30;;;;;;;2.47;1.30;;;20.40;99.90;;;;;;5093417;28;20426;-64
2023/09/20 10:01:57;;;;;;;1.47;1.33;;;20.50;99.90;;;;;;5097492;28;20240;-64
2023/09/20 10:04:24;;;;;;;2.00;1.37;;;20.50;99.90;;;;;;5090620;28;20717;-64
2023/09/20 10:07:10;;;;;;;2.07;1.27;;;20.50;99.90;;;;;;5092987;28;20504;-64
2023/09/20 10:09:41;;;;;;;1.40;1.23;;;20.60;99.90;;;;;;5090861;28;20453;-64
2023/09/20 10:12:08;;;;;;;4.53;1.47;;;20.50;99.90;;;;;;5095386;28;20819;-64
2023/09/20 10:14:37;;;;;;;1.73;1.47;;;20.60;99.90;;;;;;5095949;28;20426;-64
2023/09/20 10:17:06;;;;;;;2.20;1.53;;;20.60;99.90;;;;;;5098861;28;20461;-64
2023/09/20 10:19:33;;;;;;;2.83;1.50;;;20.60;99.90;;;;;;5097981;28;20445;-64
2023/09/20 10:22:09;;;;;;;3.73;1.60;;;20.60;99.90;;;;;;5094708;28;20430;-64
2023/09/20 10:24:51;;;;;;;3.43;1.40;;;20.70;99.90;;;;;;5074538;28;20429;-64
2023/09/20 10:27:22;;;;;;;3.63;1.33;;;20.70;99.90;;;;;;5092007;28;21079;-64
2023/09/20 10:29:58;;;;;;;3.27;2.30;;;20.70;99.90;;;;;;5093628;28;20792;-64
2023/09/20 10:32:31;;;;;;;2.50;1.97;;;20.70;99.90;;;;;;5100357;28;20441;-64
2023/09/20 10:35:31;;;;;;;1.87;1.40;;;20.70;99.90;;;;;;5097273;28;20943;-64
2023/09/20 10:38:09;;;;;;;3.10;1.53;;;20.70;99.90;;;;;;5097056;28;20463;-64
2023/09/20 10:40:45;;;;;;;4.20;1.60;;;20.70;99.90;;;;;;5100266;28;20645;-64
2023/09/20 10:43:15;;;;;;;2.37;1.80;;;20.80;99.90;;;;;;5094469;28;20437;-64
2023/09/20 10:45:43;;;;;;;3.60;1.57;;;20.80;99.90;;;;;;5097944;28;20418;-64
2023/09/20 10:48:15;;;;;;;2.37;1.50;;;20.80;99.90;;;;;;5093740;28;20427;-64
2023/09/20 10:50:57;;;;;;;2.20;1.77;;;20.80;99.90;;;;;;5100241;28;20794;-64
2023/09/20 10:53:50;;;;;;;1.70;1.40;;;20.80;99.90;;;;;;5094667;28;20437;-64
2023/09/20 10:56:53;;;;;;;1.53;1.40;;;21.00;99.90;;;;;;5091596;28;20534;-64
2023/09/20 10:59:21;;;;;;;2.03;1.50;;;21.10;99.90;;;;;;5093192;28;21006;-64
2023/09/20 11:01:58;;;;;;;3.60;2.00;;;21.30;99.90;;;;;;5099430;28;20433;-64
2023/09/20 11:04:24;;;;;;;6.47;1.90;;;21.30;99.90;;;;;;5096651;28;20425;-64
2023/09/20 11:06:52;;;;;;;2.27;1.77;;;21.30;99.90;;;;;;5093574;28;20973;-65
2023/09/20 11:09:20;;;;;;;3.80;1.53;;;21.40;99.90;;;;;;5090161;28;20430;-64
2023/09/20 11:11:47;;;;;;;2.40;1.90;;;21.40;99.90;;;;;;5092763;28;20788;-64
2023/09/20 11:14:12;;;;;;;1.83;1.73;;;21.50;99.90;;;;;;5089554;28;20438;-64
2023/09/20 11:16:41;;;;;;;2.43;1.67;;;21.50;99.90;;;;;;5090400;28;20858;-64
2023/09/20 11:19:14;;;;;;;2.07;1.87;;;21.60;99.90;;;;;;5089517;28;20566;-64
2023/09/20 11:21:43;;;;;;;2.90;1.73;;;21.70;99.90;;;;;;5093499;28;20420;-64
2023/09/20 11:24:10;;;;;;;2.57;1.70;;;21.60;99.90;;;;;;5089352;28;20433;-64
2023/09/20 11:26:36;;;;;;;3.23;1.57;;;21.50;99.90;;;;;;5092892;28;20422;-65
2023/09/20 11:29:04;;;;;;;2.07;1.50;;;21.60;99.90;;;;;;5086661;28;20933;-64
2023/09/20 11:31:32;;;;;;;1.70;1.60;;;21.60;99.90;;;;;;5091246;28;20455;-64
2023/09/20 11:34:06;;;;;;;2.03;1.80;;;21.60;99.90;;;;;;5089289;28;20802;-63
2023/09/20 11:36:45;;;;;;;2.20;1.40;;;21.60;99.90;;;;;;5091466;28;20470;-64
2023/09/20 11:39:17;;;;;;;1.73;1.40;;;21.70;99.90;;;;;;5085810;28;20477;-64
2023/09/20 13:48:55;;;;;;;1.90;1.70;;;23.00;99.90;;;;;;5094441;27;21257;-64
2023/09/20 13:51:21;;;;;;;3.40;1.77;;;23.00;99.90;;;;;;5100738;28;20441;-64
2023/09/20 13:53:51;;;;;;;3.53;1.77;;;22.90;99.90;;;;;;5112296;27;20502;-64
2023/09/20 13:56:19;;;;;;;2.70;1.70;;;22.80;99.90;;;;;;5088210;28;20620;-64
2023/09/20 13:58:45;;;;;;;2.07;1.70;;;22.80;99.90;;;;;;5095359;28;20527;-64
2023/09/20 14:01:11;;;;;;;6.87;1.97;;;22.70;99.90;;;;;;5104962;28;20421;-64
2023/09/20 14:03:37;;;;;;;3.23;1.60;;;22.60;99.90;;;;;;5105159;28;20426;-64
2023/09/20 14:06:04;;;;;;;5.40;1.67;;;22.60;99.90;;;;;;5104648;28;20989;-64
2023/09/20 14:08:32;;;;;;;3.10;1.87;;;22.60;99.90;;;;;;5106702;27;20186;-64
2023/09/20 14:11:00;;;;;;;2.63;2.13;;;22.60;99.90;;;;;;5096994;27;20417;-64
2023/09/20 14:13:26;;;;;;;3.07;2.17;;;22.70;99.90;;;;;;5084449;28;20458;-64
2023/09/20 14:15:54;;;;;;;3.43;2.07;;;22.70;99.90;;;;;;5083389;28;20457;-64
2023/09/20 14:18:20;;;;;;;3.30;1.80;;;22.70;99.90;;;;;;5083864;28;20204;-64
2023/09/20 14:20:51;;;;;;;3.40;1.90;;;22.80;99.90;;;;;;5083589;28;20421;-64
2023/09/20 14:23:20;;;;;;;2.20;1.90;;;22.90;99.90;;;;;;5084800;28;20452;-64
2023/09/20 14:25:49;;;;;;;2.30;1.90;;;22.90;99.90;;;;;;5103791;27;20771;-64
2023/09/20 14:28:16;;;;;;;3.30;1.60;;;22.90;99.90;;;;;;5116059;27;20425;-64
2023/09/20 14:30:42;;;;;;;5.27;1.70;;;22.90;99.90;;;;;;5104043;27;21257;-64
2023/09/20 14:33:08;;;;;;;3.30;1.77;;;23.00;99.90;;;;;;5104231;28;20504;-64
2023/09/20 14:35:34;;;;;;;2.27;1.70;;;23.00;99.90;;;;;;5085931;28;20518;-64
2023/09/20 14:38:00;;;;;;;3.80;1.97;;;23.00;99.90;;;;;;5084625;28;20211;-64
2023/09/20 14:40:26;;;;;;;3.23;1.87;;;23.10;99.90;;;;;;5097796;28;20865;-64
2023/09/20 14:42:56;;;;;;;3.53;2.03;;;23.10;99.90;;;;;;5093755;27;20184;-64
2023/09/20 14:45:29;;;;;;;2.97;1.80;;;23.20;99.90;;;;;;5110921;27;20436;-65
2023/09/20 14:47:59;;;;;;;2.80;2.60;;;23.20;99.90;;;;;;5102053;27;20430;-64
2023/09/20 14:50:28;;;;;;;2.07;1.80;;;23.30;99.90;;;;;;5103564;27;20461;-64
2023/09/20 14:52:54;;;;;;;2.87;2.10;;;23.30;99.90;;;;;;5100846;28;20439;-64
2023/09/20 14:55:21;;;;;;;3.50;1.90;;;23.30;99.90;;;;;;5103619;27;20520;-64
2023/09/20 14:57:51;;;;;;;2.17;1.97;;;23.30;99.90;;;;;;5104542;27;20469;-64
2023/09/20 15:00:18;;;;;;;2.57;1.73;;;23.40;99.90;;;;;;5102208;28;20839;-65
2023/09/20 15:02:48;;;;;;;4.50;2.20;;;23.40;99.90;;;;;;5098180;28;20462;-64
2023/09/20 15:05:14;;;;;;;3.30;1.77;;;23.30;99.90;;;;;;5099787;28;20820;-65
2023/09/20 15:07:42;;;;;;;3.97;2.50;;;23.30;99.90;;;;;;5098947;28;20433;-64
2023/09/20 15:10:11;;;;;;;3.13;2.10;;;23.20;99.90;;;;;;5101260;28;20417;-64
2023/09/20 15:12:38;;;;;;;4.90;2.60;;;23.10;99.90;;;;;;5100108;28;20486;-64
2023/09/20 15:15:04;;;;;;;11.17;3.00;;;23.10;99.90;;;;;;5096686;28;21036;-64
2023/09/20 15:17:31;;;;;;;2.90;1.93;;;23.10;99.90;;;;;;5096851;27;20458;-64
2023/09/20 15:19:56;;;;;;;5.53;2.10;;;23.10;99.90;;;;;;5097470;28;20815;-64
2023/09/20 15:22:29;;;;;;;2.70;2.33;;;23.00;99.90;;;;;;5082388;28;20454;-64
2023/09/20 15:24:56;;;;;;;3.03;1.80;;;23.00;99.90;;;;;;5092605;28;20187;-64
2023/09/20 15:27:22;;;;;;;3.40;1.90;;;23.00;99.90;;;;;;5100271;28;20429;-64
2023/09/20 15:29:47;;;;;;;3.13;2.43;;;22.90;99.90;;;;;;5097332;28;20551;-63
2023/09/20 15:32:13;;;;;;;4.03;1.93;;;22.90;99.90;;;;;;5094333;28;20982;-64
2023/09/20 15:34:39;;;;;;;3.73;2.53;;;22.90;99.90;;;;;;5094299;28;20219;-64
2023/09/20 15:37:05;;;;;;;3.60;1.60;;;22.90;99.90;;;;;;5099447;28;20241;-64
2023/09/20 15:39:35;;;;;;;3.93;2.20;;;22.90;99.90;;;;;;5097465;28;20539;-64
2023/09/20 15:42:01;;;;;;;5.40;2.40;;;22.90;99.90;;;;;;5096459;28;20238;-64
2023/09/20 15:44:27;;;;;;;2.90;1.93;;;22.80;99.90;;;;;;5099683;28;20465;-64